createdAt,value
2023-03-15T00:05:13.207Z,95406.88
2023-03-15T00:15:16.350Z,95425.95
2023-03-15T00:25:19.539Z,95444.33
2023-03-15T00:35:24.204Z,95497.18
2023-03-15T00:45:27.360Z,95547.05
2023-03-15T00:55:30.539Z,95595.71
2023-03-15T01:05:33.981Z,95628.79
2023-03-15T01:15:37.346Z,95654.65
2023-03-15T01:25:40.697Z,95687.19
2023-03-15T01:35:44.722Z,95700.83
2023-03-15T01:46:03.694Z,95727.36
2023-03-15T01:56:11.512Z,95752.83
2023-03-15T02:06:19.038Z,95779.70
2023-03-15T02:16:31.158Z,95799.80
2023-03-15T02:26:45.557Z,95826.32
2023-03-15T02:36:49.887Z,95853.14
2023-03-15T02:46:55.315Z,95881.81
2023-03-15T02:56:58.512Z,95897.95
2023-03-15T03:07:01.639Z,95915.34
2023-03-15T03:17:10.860Z,95914.66
2023-03-15T03:27:15.765Z,95917.45
2023-03-15T03:37:21.704Z,95938.64
2023-03-15T03:47:30.441Z,95949.41
2023-03-15T03:57:33.821Z,95954.98
2023-03-15T04:07:38.748Z,95960.36
2023-03-15T04:17:42.798Z,95972.86
2023-03-15T04:27:46.673Z,95982.21
2023-03-15T04:38:09.194Z,95996.09
2023-03-15T04:48:36.219Z,96000.23
2023-03-15T04:58:58.224Z,96020.29
2023-03-15T05:09:39.818Z,96031.02
2023-03-15T05:20:10.948Z,96045.05
2023-03-15T05:30:38.385Z,96060.52
2023-03-15T05:41:02.066Z,96067.09
2023-03-15T05:51:20.818Z,96089.29
2023-03-15T06:01:47.312Z,96115.44
2023-03-15T06:11:55.908Z,96140.86
2023-03-15T06:22:00.319Z,96151.92
2023-03-15T06:32:12.264Z,96157.38
2023-03-15T06:42:17.590Z,96172.02
2023-03-15T06:52:21.685Z,96190.45
2023-03-15T07:02:24.796Z,96200.73
2023-03-15T07:12:28.506Z,96210.02
2023-03-15T07:22:33.058Z,96221.05
2023-03-15T07:32:36.394Z,96228.86
2023-03-15T07:42:40.600Z,96235.98
2023-03-15T07:52:43.968Z,96245.77
2023-03-15T08:02:47.275Z,96263.66
2023-03-15T08:12:50.960Z,96267.77
2023-03-15T08:22:54.033Z,96271.48
2023-03-15T08:32:57.261Z,96272.38
2023-03-15T08:43:00.384Z,96284.03
2023-03-15T08:53:03.542Z,96296.73
2023-03-15T09:03:06.752Z,96305.95
2023-03-15T09:13:09.863Z,96313.77
2023-03-15T09:23:13.867Z,96325.61
2023-03-15T09:33:17.073Z,96321.94
2023-03-15T09:43:35.133Z,96332.71
2023-03-15T09:53:52.073Z,96345.73
2023-03-15T10:03:55.936Z,96354.41
2023-03-15T10:14:30.326Z,96358.63
2023-03-15T10:24:46.503Z,96366.14
2023-03-15T10:34:52.503Z,96372.56
2023-03-15T10:44:56.484Z,96386.63
2023-03-15T10:55:04.653Z,96394.46
2023-03-15T11:05:12.521Z,96404.23
2023-03-15T11:15:16.878Z,96393.95
2023-03-15T11:25:25.062Z,96390.73
2023-03-15T11:35:39.580Z,96398.96
2023-03-15T11:46:01.008Z,96405.30
2023-03-15T11:56:25.551Z,96410.70
2023-03-15T12:06:37.895Z,96422.38
2023-03-15T12:16:46.831Z,96412.77
2023-03-15T12:26:59.498Z,96413.05
2023-03-15T12:37:12.873Z,96410.02
2023-03-15T12:47:15.985Z,96414.27
2023-03-15T12:57:23.373Z,96417.69
2023-03-15T13:07:52.191Z,96416.88
2023-03-15T13:18:03.896Z,96417.00
2023-03-15T13:28:25.668Z,96428.20
2023-03-15T13:38:44.872Z,96441.77
2023-03-15T13:48:47.957Z,96459.40
2023-03-15T13:58:52.159Z,96465.68
2023-03-15T14:09:07.183Z,96477.70
2023-03-15T14:19:27.719Z,96482.08
2023-03-15T14:29:34.877Z,96488.56
2023-03-15T14:39:41.935Z,96490.30
2023-03-15T14:49:46.140Z,96491.54
2023-03-15T14:59:50.201Z,96491.90
2023-03-15T15:09:53.534Z,96505.50
2023-03-15T15:19:56.563Z,96508.74
2023-03-15T15:29:59.625Z,96513.56
2023-03-15T15:40:05.308Z,96517.92
2023-03-15T15:50:12.662Z,96525.23
2023-03-15T16:00:29.684Z,96541.20
2023-03-15T16:10:36.229Z,96550.90
2023-03-15T16:20:43.072Z,96561.52
2023-03-15T16:30:47.453Z,96567.79
2023-03-15T16:40:53.338Z,96587.77
2023-03-15T16:50:56.680Z,96609.51
2023-03-15T17:00:59.765Z,96627.68
2023-03-15T17:11:03.231Z,96638.95
2023-03-15T17:21:06.670Z,96647.27
2023-03-15T17:31:24.569Z,96660.84
2023-03-15T17:41:37.355Z,96667.30
2023-03-15T17:51:40.867Z,96681.54
2023-03-15T18:01:46.502Z,96680.42
2023-03-15T18:11:51.134Z,96682.53
2023-03-15T18:21:54.188Z,96688.71
2023-03-15T18:31:57.422Z,96683.48
2023-03-15T18:42:01.094Z,96684.69
2023-03-15T18:52:04.244Z,96688.13
2023-03-15T19:02:09.986Z,96693.39
2023-03-15T19:12:13.264Z,96691.02
2023-03-15T19:22:16.422Z,96699.29
2023-03-15T19:32:20.584Z,96707.99
2023-03-15T19:42:23.698Z,96720.58
2023-03-15T19:52:28.175Z,96736.64
2023-03-15T20:02:33.358Z,96736.41
2023-03-15T20:12:39.637Z,96740.61
2023-03-15T20:22:44.662Z,96744.24
2023-03-15T20:32:47.862Z,96751.23
2023-03-15T20:42:51.338Z,96762.80
2023-03-15T20:52:54.549Z,96767.89
2023-03-15T21:02:57.652Z,96772.74
2023-03-15T21:13:09.484Z,96779.60
2023-03-15T21:23:13.141Z,96797.24
2023-03-15T21:33:16.211Z,96800.07
2023-03-15T21:43:20.381Z,96806.15
2023-03-15T21:53:23.782Z,96803.19
2023-03-15T22:03:28.717Z,96810.91
2023-03-15T22:13:32.310Z,96822.27
2023-03-15T22:23:35.419Z,96828.98
2023-03-15T22:33:39.592Z,96835.52
2023-03-15T22:43:42.809Z,96840.96
2023-03-15T22:53:46.224Z,96848.38
2023-03-15T23:03:49.497Z,96851.00
2023-03-15T23:13:54.139Z,96856.18
2023-03-15T23:23:57.538Z,96864.48
2023-03-15T23:34:00.672Z,96873.34
2023-03-15T23:44:03.949Z,96883.17
2023-03-15T23:54:07.207Z,96889.52
